Time;durP1;ratioP1;P1;durP2;ratioP2;P2;SDS_P1;SDS_P2;PMS_P1;PMS_P2;Temp;Humidity;BMP_temperature;BMP_pressure;BME280_temperature;BME280_humidity;BME280_pressure;Samples;Min_cycle;Max_cycle;Signal;HPM_P1;HPM_P2
2023/09/18 00:01:39;;;;;;;26.20;16.83;;;;;;;18.61;100.00;95661.53;5067831;28;20304;-74
2023/09/18 00:04:05;;;;;;;27.17;17.57;;;;;;;18.66;100.00;95665.13;5043892;28;20237;-74
2023/09/18 00:06:31;;;;;;;26.43;18.07;;;;;;;18.65;100.00;95660.84;5043680;28;20233;-74
2023/09/18 00:08:56;;;;;;;27.93;17.87;;;;;;;18.67;100.00;95656.13;5069153;28;20312;-74
2023/09/18 00:11:22;;;;;;;26.73;18.30;;;;;;;18.65;100.00;95652.88;5035039;28;20226;-75
2023/09/18 00:13:48;;;;;;;28.70;17.90;;;;;;;18.61;100.00;95646.44;5054051;28;20228;-75
2023/09/18 00:16:13;;;;;;;27.87;17.63;;;;;;;18.64;100.00;95653.13;5048101;28;20224;-74
2023/09/18 00:18:38;;;;;;;24.20;17.47;;;;;;;18.66;100.00;95649.22;5066231;28;20260;-74
2023/09/18 00:21:06;;;;;;;26.57;17.83;;;;;;;18.70;100.00;95650.34;5031521;28;20220;-74
2023/09/18 00:23:32;;;;;;;26.03;18.03;;;;;;;18.63;100.00;95651.50;5063392;28;20224;-74
2023/09/18 00:25:58;;;;;;;26.70;17.90;;;;;;;18.62;100.00;95655.22;5068276;28;20225;-74
2023/09/18 00:28:23;;;;;;;26.10;17.07;;;;;;;18.58;100.00;95654.06;5064213;28;20236;-74
2023/09/18 00:30:49;;;;;;;27.17;17.70;;;;;;;18.64;100.00;95653.13;5056051;28;20221;-73
2023/09/18 00:33:15;;;;;;;28.57;18.00;;;;;;;18.68;100.00;95649.78;5040947;28;20247;-73
2023/09/18 00:35:40;;;;;;;28.80;19.03;;;;;;;18.64;100.00;95648.63;5059338;28;20320;-73
2023/09/18 00:38:07;;;;;;;28.93;18.97;;;;;;;18.74;99.89;95656.00;5052058;28;20642;-73
2023/09/18 00:40:32;;;;;;;28.87;19.60;;;;;;;18.70;99.37;95660.97;5064812;28;20233;-74
2023/09/18 00:42:58;;;;;;;30.50;20.13;;;;;;;18.72;99.00;95653.56;5045093;28;20236;-73
2023/09/18 00:45:24;;;;;;;30.53;20.03;;;;;;;18.80;98.76;95663.84;5049033;28;20232;-73
2023/09/18 00:47:50;;;;;;;30.57;20.50;;;;;;;18.81;98.38;95656.69;5050508;28;20236;-73
2023/09/18 00:50:15;;;;;;;33.10;19.90;;;;;;;18.81;98.44;95662.81;5074039;28;20223;-73
2023/09/18 00:52:41;;;;;;;27.27;18.93;;;;;;;18.83;98.50;95660.72;5052269;28;20272;-73
2023/09/18 00:55:07;;;;;;;27.83;18.63;;;;;;;18.81;98.55;95654.84;5045406;28;20316;-73
2023/09/18 00:57:32;;;;;;;27.63;17.50;;;;;;;18.74;98.89;95662.13;5047279;28;20275;-74
2023/09/18 00:59:57;;;;;;;28.73;18.13;;;;;;;18.69;99.39;95659.34;5068630;28;20290;-73
2023/09/18 01:02:23;;;;;;;26.80;17.77;;;;;;;18.76;98.90;95662.69;5062543;28;20239;-74
2023/09/18 01:04:49;;;;;;;25.97;16.13;;;;;;;18.77;99.11;95668.81;5069611;28;20228;-74
2023/09/18 01:07:14;;;;;;;23.53;15.30;;;;;;;18.77;98.85;95666.94;5047804;28;20240;-74
2023/09/18 01:09:40;;;;;;;22.97;15.80;;;;;;;18.76;98.98;95669.84;5072321;28;20221;-74
2023/09/18 01:12:17;;;;;;;23.67;14.90;;;;;;;18.70;98.73;95665.47;5069228;28;20259;-74
2023/09/18 01:15:03;;;;;;;22.63;14.77;;;;;;;18.72;98.69;95666.03;5038868;28;21092;-74
2023/09/18 01:17:30;;;;;;;22.40;14.77;;;;;;;18.81;97.59;95668.13;5047177;28;20729;-74
2023/09/18 01:19:56;;;;;;;19.47;13.40;;;;;;;18.87;97.65;95668.22;5039182;28;20228;-73
2023/09/18 01:22:22;;;;;;;19.47;13.77;;;;;;;18.78;97.60;95667.75;5072328;28;20235;-74
2023/09/18 01:24:48;;;;;;;17.50;13.00;;;;;;;18.68;98.41;95667.53;5057305;28;20676;-74
2023/09/18 01:27:14;;;;;;;20.50;12.60;;;;;;;18.63;97.79;95662.09;5045935;28;20245;-74
2023/09/18 01:29:40;;;;;;;23.00;13.03;;;;;;;18.62;98.67;95663.16;5048309;28;20233;-73
2023/09/18 01:32:06;;;;;;;19.23;12.50;;;;;;;18.57;98.77;95666.50;5060581;28;20235;-73
2023/09/18 01:34:33;;;;;;;21.07;13.20;;;;;;;18.64;98.15;95664.53;5043162;28;20234;-74
2023/09/18 01:36:59;;;;;;;20.47;12.67;;;;;;;18.58;98.44;95657.50;5039656;28;20234;-74
2023/09/18 01:39:24;;;;;;;18.37;12.80;;;;;;;18.65;98.40;95657.41;5024531;28;20279;-73
2023/09/18 01:41:50;;;;;;;17.70;11.77;;;;;;;18.53;98.52;95660.03;5050121;28;20232;-73
2023/09/18 01:44:15;;;;;;;16.90;11.87;;;;;;;18.55;98.13;95665.13;5054230;28;20227;-73
2023/09/18 01:46:41;;;;;;;20.17;12.23;;;;;;;18.55;98.29;95667.78;5053266;28;20249;-74
2023/09/18 01:49:06;;;;;;;17.23;11.67;;;;;;;18.49;98.38;95669.50;5069150;28;20300;-74
2023/09/18 01:51:32;;;;;;;18.73;12.20;;;;;;;18.49;98.46;95663.38;5050541;28;20228;-74
2023/09/18 01:53:57;;;;;;;20.20;12.73;;;;;;;18.53;98.45;95664.56;5052283;28;20224;-75
2023/09/18 01:56:23;;;;;;;17.53;12.07;;;;;;;18.48;98.55;95657.28;5067493;28;20233;-76
2023/09/18 01:58:49;;;;;;;19.47;12.27;;;;;;;18.54;98.13;95666.16;5078237;28;20244;-76
2023/09/18 02:01:15;;;;;;;19.53;12.67;;;;;;;18.55;97.59;95668.59;5064096;28;20230;-75
2023/09/18 02:03:41;;;;;;;18.53;12.37;;;;;;;18.59;97.46;95675.03;5054828;28;20597;-75
2023/09/18 02:06:09;;;;;;;21.83;13.73;;;;;;;18.55;97.68;95678.38;5052045;28;20288;-75
2023/09/18 02:08:35;;;;;;;21.90;13.67;;;;;;;18.58;97.64;95676.06;5066115;28;20707;-76
2023/09/18 02:11:00;;;;;;;22.70;14.13;;;;;;;18.62;97.83;95677.22;5064691;28;20309;-77
2023/09/18 02:13:26;;;;;;;24.10;14.50;;;;;;;18.51;97.62;95677.22;5067930;28;20249;-76
2023/09/18 02:15:51;;;;;;;22.00;14.77;;;;;;;18.55;97.46;95678.38;5044563;28;20897;-76
2023/09/18 02:18:17;;;;;;;19.93;14.03;;;;;;;18.61;97.38;95675.59;5071177;28;20721;-75
2023/09/18 02:20:47;;;;;;;21.73;14.63;;;;;;;18.58;97.67;95681.38;5051515;28;20232;-75
2023/09/18 02:23:12;;;;;;;24.33;15.60;;;;;;;18.57;97.89;95677.13;5074107;28;20229;-76
2023/09/18 02:25:40;;;;;;;24.43;15.30;;;;;;;18.66;97.39;95674.91;5055461;28;20260;-75
2023/09/18 02:28:05;;;;;;;23.13;14.33;;;;;;;18.49;97.78;95684.59;5048776;28;20242;-76
2023/09/18 02:30:31;;;;;;;21.90;14.30;;;;;;;18.41;97.99;95674.31;5053739;28;20228;-76
2023/09/18 02:32:56;;;;;;;21.63;14.10;;;;;;;18.39;97.92;95677.16;5053801;28;20797;-76
2023/09/18 02:35:22;;;;;;;21.20;13.60;;;;;;;18.48;97.83;95675.84;5048961;28;20255;-76
2023/09/18 02:37:47;;;;;;;19.33;13.60;;;;;;;18.43;97.95;95681.00;5071272;28;20234;-75
2023/09/18 02:40:13;;;;;;;19.50;12.87;;;;;;;18.41;97.47;95671.66;5062909;28;20243;-75
2023/09/18 02:42:38;;;;;;;18.20;12.10;;;;;;;18.37;97.54;95665.19;5065154;28;20220;-75
2023/09/18 02:45:04;;;;;;;18.93;12.43;;;;;;;18.37;97.95;95668.66;5056062;28;20225;-76
2023/09/18 02:47:29;;;;;;;17.77;11.53;;;;;;;18.39;97.31;95674.53;5066854;28;20316;-76
2023/09/18 02:49:55;;;;;;;16.73;11.40;;;;;;;18.36;97.65;95671.53;5051655;28;20228;-76
2023/09/18 02:52:20;;;;;;;19.50;11.80;;;;;;;18.34;97.36;95671.75;5070536;28;20231;-75
2023/09/18 02:54:46;;;;;;;18.57;11.17;;;;;;;18.35;97.77;95673.38;5058595;28;20228;-76
2023/09/18 02:57:11;;;;;;;18.73;11.40;;;;;;;18.35;97.66;95672.56;5052965;28;20242;-75
2023/09/18 02:59:36;;;;;;;20.23;11.60;;;;;;;18.34;97.30;95671.75;5044537;28;20236;-75
2023/09/18 03:02:02;;;;;;;19.70;11.47;;;;;;;18.30;97.67;95677.72;5072973;28;20968;-76
2023/09/18 03:04:29;;;;;;;16.90;11.53;;;;;;;18.29;97.93;95687.56;5067820;28;20236;-76
2023/09/18 03:06:55;;;;;;;17.97;11.57;;;;;;;18.26;97.75;95680.06;5055823;28;20261;-76
2023/09/18 03:09:21;;;;;;;17.90;11.10;;;;;;;18.26;97.67;95684.53;5072495;28;20224;-75
2023/09/18 03:11:46;;;;;;;16.33;10.87;;;;;;;18.26;97.67;95684.53;5056283;28;20258;-76
2023/09/18 03:14:12;;;;;;;18.10;11.53;;;;;;;18.15;98.27;95681.63;5050658;28;20228;-76
2023/09/18 03:16:38;;;;;;;18.50;11.53;;;;;;;18.16;97.98;95680.59;5062823;28;20228;-76
2023/09/18 03:19:03;;;;;;;18.23;11.30;;;;;;;18.19;98.24;95682.00;5050628;28;20224;-75
2023/09/18 03:21:30;;;;;;;15.97;11.20;;;;;;;18.07;98.64;95679.31;5053365;28;20232;-75
2023/09/18 03:23:57;;;;;;;16.97;11.13;;;;;;;18.02;99.28;95673.91;5054421;28;20237;-75
2023/09/18 03:26:23;;;;;;;16.97;11.20;;;;;;;18.16;98.45;95677.97;5068241;28;20236;-76
2023/09/18 03:28:48;;;;;;;17.67;11.27;;;;;;;18.09;98.84;95666.66;5050772;28;20229;-75
2023/09/18 03:31:14;;;;;;;20.13;11.90;;;;;;;18.05;98.47;95662.03;5071418;28;20243;-76
2023/09/18 03:33:39;;;;;;;19.63;11.73;;;;;;;17.99;98.56;95669.03;5052242;28;20239;-76
2023/09/18 03:36:05;;;;;;;20.17;11.90;;;;;;;17.98;98.57;95666.63;5067965;28;23361;-75
2023/09/18 03:38:32;;;;;;;17.70;12.73;;;;;;;18.02;98.60;95665.13;5063199;28;20235;-76
2023/09/18 03:41:00;;;;;;;18.53;11.97;;;;;;;17.98;98.57;95666.63;5064438;28;20225;-75
2023/09/18 03:43:26;;;;;;;20.07;12.50;;;;;;;17.96;98.77;95668.72;5051854;28;20237;-76
2023/09/18 03:45:51;;;;;;;21.63;13.10;;;;;;;17.91;99.51;95663.28;5038328;28;20236;-76
2023/09/18 03:48:17;;;;;;;19.47;12.87;;;;;;;17.96;98.97;95655.47;5058503;28;20286;-76
2023/09/18 03:50:42;;;;;;;20.37;13.73;;;;;;;17.95;99.06;95657.28;5065973;28;20233;-75
2023/09/18 03:53:09;;;;;;;21.33;13.63;;;;;;;17.91;99.58;95655.34;5065770;28;20240;-75
2023/09/18 03:55:35;;;;;;;21.07;13.47;;;;;;;17.93;99.25;95654.06;5051507;28;20264;-75
2023/09/18 03:58:00;;;;;;;23.60;13.93;;;;;;;17.91;99.26;95655.34;5069407;28;20669;-76
2023/09/18 04:00:26;;;;;;;21.73;13.97;;;;;;;18.00;99.00;95661.91;5036830;28;20311;-75
2023/09/18 04:02:51;;;;;;;24.97;14.70;;;;;;;17.89;99.65;95652.88;5061045;28;20832;-76
2023/09/18 04:05:17;;;;;;;24.97;14.37;;;;;;;17.89;99.50;95654.72;5038453;28;20233;-76
2023/09/18 04:07:46;;;;;;;24.30;15.13;;;;;;;17.83;99.88;95650.34;5065709;28;20689;-76
2023/09/18 04:10:18;;;;;;;28.87;14.60;;;;;;;17.81;99.88;95652.41;5064522;28;20236;-76
2023/09/18 04:12:46;;;;;;;23.87;15.27;;;;;;;17.82;100.00;95657.47;5048559;28;20236;-76
2023/09/18 04:15:14;;;;;;;26.67;16.10;;;;;;;17.84;100.00;95654.63;5054605;28;20229;-76
2023/09/18 04:17:39;;;;;;;28.73;15.60;;;;;;;17.82;99.85;95656.66;5037982;28;20232;-76
2023/09/18 04:20:05;;;;;;;30.07;15.67;;;;;;;17.84;99.74;95651.97;5063845;28;20225;-76
2023/09/18 04:22:31;;;;;;;25.00;15.90;;;;;;;17.84;99.42;95666.00;5031026;28;20233;-76
2023/09/18 04:24:56;;;;;;;24.63;15.93;;;;;;;17.81;99.96;95670.97;5034294;28;20316;-77
2023/09/18 04:27:22;;;;;;;26.83;15.60;;;;;;;17.89;99.69;95670.63;5059086;28;20241;-78
2023/09/18 04:29:47;;;;;;;26.73;15.80;;;;;;;17.84;99.47;95673.16;5055749;28;20628;-78
2023/09/18 04:32:13;;;;;;;25.63;16.00;;;;;;;17.88;100.00;95672.47;5053195;28;20244;-78
2023/09/18 04:34:39;;;;;;;27.13;15.50;;;;;;;17.89;99.46;95670.63;5039568;28;20236;-77
2023/09/18 04:37:04;;;;;;;27.70;15.50;;;;;;;17.81;100.00;95665.66;5061465;28;20229;-77
2023/09/18 04:39:30;;;;;;;27.33;14.80;;;;;;;17.81;99.34;95673.59;5037459;28;20307;-77
2023/09/18 04:41:55;;;;;;;26.57;14.60;;;;;;;17.72;100.00;95672.31;5051679;28;21178;-77
2023/09/18 04:44:21;;;;;;;25.87;14.47;;;;;;;17.85;99.57;95672.09;5070299;28;20239;-77
2023/09/18 04:46:46;;;;;;;25.80;14.13;;;;;;;17.82;99.69;95677.84;5066436;28;20232;-76
2023/09/18 04:49:12;;;;;;;26.23;14.90;;;;;;;17.77;100.00;95673.22;5059313;28;20293;-76
2023/09/18 04:51:39;;;;;;;24.97;14.50;;;;;;;17.85;99.83;95683.53;5063630;28;20228;-76
2023/09/18 04:54:05;;;;;;;24.97;14.23;;;;;;;17.92;99.24;95678.94;5049037;28;20316;-76
2023/09/18 04:56:30;;;;;;;25.23;14.17;;;;;;;17.94;99.62;95676.03;5049130;28;20667;-76
2023/09/18 04:58:57;;;;;;;26.40;14.63;;;;;;;17.95;99.01;95667.06;5062233;28;20244;-77
2023/09/18 05:01:24;;;;;;;26.67;15.23;;;;;;;17.95;99.93;95667.06;5052446;28;20458;-77
2023/09/18 05:03:51;;;;;;;28.87;15.40;;;;;;;17.97;99.52;95667.66;5066993;28;20268;-76
2023/09/18 05:06:16;;;;;;;28.87;15.87;;;;;;;17.97;99.09;95660.53;5068114;28;20228;-77
2023/09/18 05:08:43;;;;;;;29.67;15.63;;;;;;;18.07;99.00;95670.56;5059822;28;20243;-77
2023/09/18 05:11:09;;;;;;;26.50;15.90;;;;;;;18.08;98.85;95667.69;5064143;28;20263;-77
2023/09/18 05:13:34;;;;;;;29.80;16.63;;;;;;;18.01;99.51;95663.50;5043440;28;20231;-77
2023/09/18 05:16:00;;;;;;;26.33;16.40;;;;;;;18.08;98.89;95672.16;5042450;28;20224;-76
2023/09/18 05:18:26;;;;;;;29.67;15.77;;;;;;;18.09;99.12;95676.44;5053779;28;20222;-76
2023/09/18 05:20:51;;;;;;;26.50;14.63;;;;;;;18.11;98.66;95677.81;5073075;28;20255;-76
2023/09/18 05:23:18;;;;;;;27.47;14.63;;;;;;;18.18;98.31;95672.41;5056627;28;20240;-76
2023/09/18 05:25:44;;;;;;;24.77;14.97;;;;;;;18.12;98.71;95679.47;5046510;28;20232;-76
2023/09/18 05:28:09;;;;;;;26.93;15.03;;;;;;;18.13;98.56;95677.59;5070090;28;20305;-77
2023/09/18 05:30:38;;;;;;;31.43;14.87;;;;;;;18.18;98.28;95683.03;5051344;28;20665;-82
2023/09/18 05:33:07;;;;;;;25.70;15.23;;;;;;;18.18;98.27;95680.38;5036431;28;20235;-81
2023/09/18 05:35:36;;;;;;;27.37;14.67;;;;;;;18.36;97.66;95682.94;5051030;28;20228;-81
2023/09/18 05:38:03;;;;;;;25.37;15.00;;;;;;;18.35;97.30;95681.31;5040637;28;20260;-81
2023/09/18 05:40:28;;;;;;;29.17;15.43;;;;;;;18.45;96.56;95684.22;5056683;28;20235;-81
2023/09/18 05:42:54;;;;;;;24.97;15.27;;;;;;;18.46;97.14;95680.53;5049843;28;20235;-81
2023/09/18 05:45:20;;;;;;;26.73;16.13;;;;;;;18.47;97.49;95681.34;5048556;28;20792;-82
2023/09/18 05:47:45;;;;;;;27.23;15.97;;;;;;;18.53;97.08;95686.53;5041137;28;20239;-81
2023/09/18 05:50:16;;;;;;;31.33;16.20;;;;;;;18.62;96.92;95693.16;5052004;28;20320;-80
2023/09/18 05:52:42;;;;;;;26.50;15.90;;;;;;;18.69;96.17;95696.50;5041570;28;20297;-82
2023/09/18 05:55:07;;;;;;;29.40;16.50;;;;;;;18.69;96.61;95699.16;5055850;28;20242;-81
2023/09/18 05:57:34;;;;;;;25.33;15.20;;;;;;;18.68;96.85;95689.56;5049720;28;20794;-80
2023/09/18 05:59:59;;;;;;;31.70;16.17;;;;;;;18.76;96.98;95699.84;5051124;28;20236;-82
2023/09/18 06:02:25;;;;;;;24.57;14.40;;;;;;;18.76;96.83;95697.19;5058052;28;20632;-80
2023/09/18 06:04:57;;;;;;;28.00;15.27;;;;;;;18.79;96.41;95694.03;5058608;28;20220;-82
2023/09/18 06:07:26;;;;;;;24.43;14.87;;;;;;;18.82;96.54;95692.78;5058174;28;20715;-81
2023/09/18 06:09:52;;;;;;;26.07;14.70;;;;;;;18.81;97.24;95696.47;5067781;28;20317;-81
2023/09/18 06:12:17;;;;;;;28.30;14.60;;;;;;;18.98;95.66;95693.94;5046304;28;20236;-81
2023/09/18 06:14:43;;;;;;;26.37;14.03;;;;;;;18.90;95.69;95689.78;5053954;28;20698;-81
2023/09/18 06:17:09;;;;;;;23.20;13.60;;;;;;;18.98;95.44;95694.75;5067837;28;20218;-81
2023/09/18 06:19:35;;;;;;;24.23;12.60;;;;;;;19.03;95.14;95692.22;5038376;28;20237;-81
2023/09/18 06:22:00;;;;;;;20.67;12.00;;;;;;;19.12;94.37;95700.59;5052125;28;20725;-80
2023/09/18 06:24:26;;;;;;;21.90;12.83;;;;;;;19.16;93.75;95702.56;5068817;28;20262;-82
2023/09/18 06:26:52;;;;;;;22.97;13.00;;;;;;;19.29;93.99;95701.50;5042423;28;20235;-81
2023/09/18 06:29:18;;;;;;;26.73;12.77;;;;;;;19.29;93.95;95685.56;5036606;28;20303;-82
2023/09/18 06:31:44;;;;;;;20.20;12.50;;;;;;;19.33;93.46;95697.31;5053284;28;20294;-77
2023/09/18 06:34:09;;;;;;;23.37;13.17;;;;;;;19.32;92.99;95699.16;5073389;28;20232;-76
2023/09/18 06:36:34;;;;;;;22.97;13.70;;;;;;;19.41;92.86;95697.81;5060791;28;20232;-77
2023/09/18 06:39:00;;;;;;;23.77;13.90;;;;;;;19.44;92.00;95704.47;5050933;28;20263;-78
2023/09/18 06:41:26;;;;;;;25.53;14.87;;;;;;;19.35;92.56;95700.56;5062412;28;20240;-78
2023/09/18 06:43:52;;;;;;;24.37;14.87;;;;;;;19.31;93.38;95697.56;5065433;28;20230;-78
2023/09/18 06:46:18;;;;;;;28.57;15.87;;;;;;;19.35;93.18;95700.56;5044386;28;20769;-78
2023/09/18 06:48:45;;;;;;;26.60;15.10;;;;;;;19.45;92.46;95704.25;5048957;28;20236;-77
2023/09/18 06:51:11;;;;;;;27.30;15.57;;;;;;;19.53;91.89;95700.44;5061160;28;20229;-77
2023/09/18 06:53:36;;;;;;;25.87;15.57;;;;;;;19.43;93.02;95702.88;5053390;28;20224;-78
2023/09/18 06:56:02;;;;;;;25.10;15.27;;;;;;;19.59;91.91;95703.97;5056030;28;20229;-77
2023/09/18 06:58:27;;;;;;;27.23;16.60;;;;;;;19.63;91.94;95692.63;5065166;28;20228;-78
2023/09/18 07:00:53;;;;;;;25.40;14.80;;;;;;;19.71;90.74;95702.91;5052036;28;20257;-78
2023/09/18 07:03:18;;;;;;;24.60;15.57;;;;;;;19.79;90.59;95704.38;5057471;28;21066;-77
2023/09/18 07:05:45;;;;;;;25.53;14.97;;;;;;;19.84;90.75;95701.81;5048571;28;20575;-77
2023/09/18 07:08:12;;;;;;;29.43;15.63;;;;;;;19.96;90.05;95697.25;5052031;28;20230;-78
2023/09/18 07:10:38;;;;;;;28.90;16.17;;;;;;;20.06;90.68;95700.09;5063818;28;20232;-77
2023/09/18 07:13:04;;;;;;;26.67;16.20;;;;;;;20.02;90.45;95697.09;5066162;28;20328;-77
2023/09/18 07:15:29;;;;;;;26.00;15.97;;;;;;;19.98;89.77;95697.81;5052311;28;20323;-76
2023/09/18 07:17:55;;;;;;;27.93;16.50;;;;;;;19.91;90.21;95691.84;5038461;28;20237;-77
2023/09/18 07:20:22;;;;;;;27.53;15.47;;;;;;;20.03;89.51;95693.41;5045088;28;20236;-76
2023/09/18 07:22:48;;;;;;;25.47;14.97;;;;;;;20.27;88.21;95709.25;5067288;28;20236;-76
2023/09/18 07:25:14;;;;;;;28.20;16.53;;;;;;;20.22;88.79;95701.16;5025443;28;20981;-78
2023/09/18 07:27:43;;;;;;;28.03;16.37;;;;;;;20.14;88.67;95705.00;5033681;28;20320;-75
2023/09/18 07:30:10;;;;;;;27.37;16.93;;;;;;;20.10;88.95;95703.88;5062288;28;20319;-75
2023/09/18 07:32:36;;;;;;;29.70;16.90;;;;;;;20.31;88.82;95705.06;5054299;28;20232;-75
2023/09/18 07:35:01;;;;;;;28.80;15.73;;;;;;;20.39;87.75;95708.16;5037548;28;20300;-76
2023/09/18 07:37:27;;;;;;;23.23;15.53;;;;;;;20.57;87.00;95699.91;5046146;28;20291;-75
2023/09/18 07:39:53;;;;;;;23.53;14.77;;;;;;;20.58;86.22;95706.06;5069200;28;20233;-75
2023/09/18 07:42:19;;;;;;;27.20;16.20;;;;;;;20.46;87.29;95694.69;5072443;28;20224;-76
2023/09/18 07:44:44;;;;;;;27.83;15.97;;;;;;;20.54;87.95;95696.97;5049602;28;20316;-76
2023/09/18 07:47:09;;;;;;;23.20;15.63;;;;;;;20.54;87.20;95703.06;5055782;28;20342;-76
2023/09/18 07:49:35;;;;;;;26.33;15.77;;;;;;;20.55;87.41;95701.22;5055558;28;20227;-76
2023/09/18 07:52:00;;;;;;;26.00;16.17;;;;;;;20.64;86.82;95705.06;5052583;28;20229;-75
2023/09/18 07:54:29;;;;;;;25.67;16.23;;;;;;;20.68;86.23;95698.25;5069094;28;20220;-75
2023/09/18 07:56:54;;;;;;;28.47;16.30;;;;;;;20.75;86.18;95698.88;5066339;28;20228;-76
2023/09/18 07:59:20;;;;;;;27.40;16.38;;;;;;;20.93;85.47;95698.59;5046140;28;20232;-76
2023/09/18 08:01:45;;;;;;;27.13;16.13;;;;;;;20.92;85.47;95701.50;5058409;28;20228;-75
2023/09/18 08:04:11;;;;;;;25.08;15.23;;;;;;;20.98;84.61;95701.34;5026212;28;20236;-76
2023/09/18 08:06:37;;;;;;;24.43;15.60;;;;;;;20.95;84.29;95693.81;5061915;28;20224;-76
2023/09/18 08:09:04;;;;;;;25.70;15.67;;;;;;;21.02;83.92;95688.31;5061536;28;20224;-76
2023/09/18 08:11:30;;;;;;;28.47;14.07;;;;;;;21.10;83.56;95688.75;5060084;28;20224;-75
2023/09/18 08:13:55;;;;;;;24.93;14.80;;;;;;;21.19;83.45;95692.59;5047073;28;20320;-75
2023/09/18 08:16:21;;;;;;;24.07;15.23;;;;;;;21.29;82.26;95699.91;5043635;28;20236;-76
2023/09/18 08:18:47;;;;;;;21.90;14.00;;;;;;;21.12;82.84;95686.66;5069172;28;20531;-75
2023/09/18 08:21:13;;;;;;;22.70;14.15;;;;;;;21.08;82.83;95685.53;5070281;28;20704;-77
2023/09/18 08:23:39;;;;;;;24.83;15.87;;;;;;;21.15;83.18;95688.00;5049667;28;20240;-76
2023/09/18 08:26:05;;;;;;;24.93;14.93;;;;;;;21.30;82.70;95683.69;5032885;28;20240;-76
2023/09/18 08:28:31;;;;;;;24.48;14.60;;;;;;;21.46;81.31;95685.50;5056725;28;20282;-76
2023/09/18 08:30:57;;;;;;;23.57;13.67;;;;;;;21.59;81.12;95686.19;5043529;28;20229;-76
2023/09/18 08:33:22;;;;;;;22.30;13.32;;;;;;;21.56;80.59;95682.16;5066419;28;20233;-76
2023/09/18 08:35:49;;;;;;;21.43;13.57;;;;;;;21.69;80.27;95679.09;5051120;28;20283;-76
2023/09/18 08:38:15;;;;;;;23.50;13.25;;;;;;;21.64;80.34;95675.56;5067384;28;20233;-76
2023/09/18 08:40:41;;;;;;;21.30;13.23;;;;;;;21.81;79.65;95674.41;5038340;28;20292;-76
2023/09/18 08:43:07;;;;;;;22.10;13.23;;;;;;;21.85;79.06;95664.88;5065892;28;20237;-76
2023/09/18 08:45:53;;;;;;;25.13;13.73;;;;;;;21.93;79.37;95668.97;5042615;28;20247;-77
2023/09/18 08:48:19;;;;;;;23.75;13.93;;;;;;;22.03;79.05;95671.75;5051702;28;20279;-77
2023/09/18 08:50:45;;;;;;;24.40;13.82;;;;;;;22.15;78.25;95659.06;5039928;28;20328;-77
2023/09/18 08:53:11;;;;;;;27.15;14.38;;;;;;;22.09;78.16;95654.75;5055728;28;20225;-76
2023/09/18 08:55:40;;;;;;;22.92;13.93;;;;;;;22.08;78.38;95663.78;5052602;28;20235;-77
2023/09/18 08:58:06;;;;;;;23.27;14.20;;;;;;;22.12;77.55;95665.69;5054174;28;20244;-76
2023/09/18 09:00:32;;;;;;;24.10;14.15;;;;;;;22.19;77.80;95657.47;5053242;28;20951;-76
2023/09/18 09:02:57;;;;;;;24.95;14.68;;;;;;;22.42;77.79;95657.16;5071252;28;20228;-76
2023/09/18 09:05:23;;;;;;;19.52;13.38;;;;;;;22.56;76.01;95660.19;5074789;28;20238;-76
2023/09/18 09:07:49;;;;;;;22.25;13.07;;;;;;;22.55;75.91;95651.38;5069642;28;20797;-76
2023/09/18 09:10:15;;;;;;;18.63;12.75;;;;;;;22.57;75.79;95653.81;5054308;28;20229;-77
2023/09/18 09:12:53;;;;;;;22.00;12.80;;;;;;;22.61;75.93;95661.06;5054516;28;20256;-77
2023/09/18 09:15:19;;;;;;;20.42;12.23;;;;;;;22.65;75.00;95661.34;5039741;28;20229;-77
2023/09/18 09:17:44;;;;;;;19.70;12.10;;;;;;;22.72;74.21;95654.72;5041480;28;20650;-76
2023/09/18 09:20:11;;;;;;;19.00;12.88;;;;;;;22.89;74.90;95651.91;5052552;28;20259;-76
2023/09/18 09:22:37;;;;;;;22.00;12.60;;;;;;;23.03;74.18;95653.03;5051419;28;20261;-77
2023/09/18 09:25:04;;;;;;;24.15;12.23;;;;;;;23.05;73.44;95647.44;5059056;28;20235;-77
2023/09/18 09:27:29;;;;;;;19.00;12.23;;;;;;;23.16;73.31;95646.44;5070075;28;20800;-75
2023/09/18 09:29:59;;;;;;;18.50;11.55;;;;;;;23.19;72.19;95643.25;5055118;28;20233;-76
2023/09/18 09:32:24;;;;;;;19.30;10.60;;;;;;;23.10;71.72;95650.13;5070470;28;20237;-76
2023/09/18 09:34:50;;;;;;;16.42;9.25;;;;;;;22.89;70.21;95651.09;5051783;28;20232;-76
2023/09/18 09:37:16;;;;;;;15.55;10.02;;;;;;;22.68;71.48;95642.16;5052262;28;20232;-77
2023/09/18 09:39:49;;;;;;;18.08;11.18;;;;;;;22.86;72.68;95638.25;5067157;28;20229;-76
2023/09/18 09:42:24;;;;;;;18.10;11.85;;;;;;;23.02;72.96;95642.63;5038924;28;20237;-73
2023/09/18 09:45:01;;;;;;;18.13;11.80;;;;;;;23.18;71.42;95636.28;5039399;28;20229;-74
2023/09/18 09:47:27;;;;;;;19.90;12.23;;;;;;;23.22;70.97;95632.03;5070608;28;20659;-73
2023/09/18 09:49:54;;;;;;;21.45;11.82;;;;;;;23.12;71.31;95626.66;5038052;28;20259;-74
2023/09/18 09:52:22;;;;;;;17.25;11.48;;;;;;;23.04;71.84;95629.81;5057477;28;20233;-73
2023/09/18 09:54:48;;;;;;;21.02;11.20;;;;;;;23.15;72.21;95626.13;5037043;28;20241;-73
2023/09/18 09:57:13;;;;;;;15.52;10.73;;;;;;;23.40;70.18;95626.28;5042927;28;20243;-74
2023/09/18 09:59:39;;;;;;;15.90;9.98;;;;;;;23.54;69.82;95624.72;5059090;28;20228;-74
2023/09/18 10:02:05;;;;;;;16.55;10.77;;;;;;;23.62;68.87;95626.84;5066727;28;20233;-74
2023/09/18 10:04:31;;;;;;;17.65;10.25;;;;;;;23.69;68.33;95623.94;5036713;28;20229;-74
2023/09/18 10:06:59;;;;;;;14.60;9.18;;;;;;;23.75;67.27;95622.88;5053723;28;20286;-74
2023/09/18 10:09:25;;;;;;;14.93;9.60;;;;;;;23.91;68.16;95619.97;5056126;28;20228;-73
2023/09/18 10:11:52;;;;;;;15.93;10.35;;;;;;;23.97;68.98;95604.75;5052035;28;20225;-73
2023/09/18 10:14:25;;;;;;;13.65;9.30;;;;;;;24.13;67.63;95621.63;5038109;28;20319;-73
2023/09/18 10:16:54;;;;;;;16.40;10.70;;;;;;;24.26;66.27;95611.22;5053657;28;20232;-73
2023/09/18 10:19:39;;;;;;;15.93;9.80;;;;;;;24.23;65.50;95621.63;5037747;28;20244;-73
2023/09/18 10:22:11;;;;;;;17.20;9.93;;;;;;;24.26;65.21;95610.41;5054873;28;20248;-73
2023/09/18 10:24:37;;;;;;;14.90;8.70;;;;;;;24.27;64.53;95612.00;5061466;28;20229;-72
2023/09/18 10:27:03;;;;;;;12.95;7.95;;;;;;;24.22;63.89;95612.00;5063726;28;20241;-72
2023/09/18 10:29:30;;;;;;;12.63;7.80;;;;;;;24.41;63.84;95610.41;5052334;28;20225;-73
2023/09/18 10:31:55;;;;;;;13.23;8.85;;;;;;;24.49;64.02;95588.44;5050955;28;20872;-73
2023/09/18 10:34:22;;;;;;;17.08;9.60;;;;;;;24.59;65.39;95588.41;5057228;28;20287;-73
2023/09/18 10:36:48;;;;;;;13.43;8.85;;;;;;;24.46;64.18;95583.59;5068433;28;20921;-74
2023/09/18 10:39:19;;;;;;;15.57;9.30;;;;;;;24.55;63.38;95584.69;5054672;28;20228;-74
2023/09/18 10:41:47;;;;;;;11.93;8.25;;;;;;;24.76;63.58;95580.88;5042988;28;20236;-73
2023/09/18 10:44:14;;;;;;;11.13;7.72;;;;;;;24.94;62.88;95579.50;5040938;28;20277;-73
2023/09/18 10:46:39;;;;;;;13.55;7.15;;;;;;;25.02;62.33;95568.25;5053785;28;20324;-73
2023/09/18 10:49:05;;;;;;;13.02;7.18;;;;;;;24.98;61.63;95569.88;5051914;28;20228;-73
2023/09/18 10:51:31;;;;;;;13.07;7.25;;;;;;;25.05;62.19;95568.50;5053641;28;20238;-73
2023/09/18 10:53:57;;;;;;;13.52;7.30;;;;;;;25.18;61.04;95567.09;5047843;28;20233;-74
2023/09/18 10:56:23;;;;;;;12.55;7.47;;;;;;;25.24;61.39;95569.47;5037748;28;20235;-73
2023/09/18 10:59:02;;;;;;;10.23;7.40;;;;;;;25.16;60.93;95558.53;5049825;28;20237;-74
2023/09/18 11:01:29;;;;;;;10.88;6.97;;;;;;;25.27;61.21;95558.22;5033462;28;20721;-73
2023/09/18 11:04:01;;;;;;;11.25;6.88;;;;;;;25.46;59.61;95566.44;5069680;28;20229;-73
2023/09/18 11:06:27;;;;;;;11.35;6.50;;;;;;;25.42;59.60;95562.69;5070867;28;20260;-73
2023/09/18 11:09:01;;;;;;;9.38;6.85;;;;;;;25.54;60.07;95557.84;5063250;28;20335;-73
2023/09/18 11:11:29;;;;;;;11.88;7.03;;;;;;;25.64;58.91;95557.78;5048159;28;20264;-73
2023/09/18 11:13:55;;;;;;;11.50;6.80;;;;;;;25.83;58.83;95555.22;5031138;28;20748;-73